Time;durP1;ratioP1;P1;durP2;ratioP2;P2;SDS_P1;SDS_P2;PMS_P1;PMS_P2;Temp;Humidity;BMP_temperature;BMP_pressure;BME280_temperature;BME280_humidity;BME280_pressure;Samples;Min_cycle;Max_cycle;Signal;HPM_P1;HPM_P2
2021/07/26 00:00:52;;;;;;;3.22;2.25;;;;;;;17.47;98.02;99441.31;4998222;28;20436;-72
2021/07/26 00:03:19;;;;;;;4.53;2.10;;;;;;;17.47;100.00;99442.16;4999334;28;20086;-71
2021/07/26 00:05:53;;;;;;;4.10;2.40;;;;;;;17.41;99.97;99439.22;5000047;28;20072;-72
2021/07/26 00:08:33;;;;;;;5.65;2.25;;;;;;;17.42;97.99;99439.09;4998720;28;20054;-73
2021/07/26 00:11:01;;;;;;;4.88;2.33;;;;;;;17.43;98.01;99429.97;4996015;28;20057;-71
2021/07/26 00:13:28;;;;;;;5.38;2.40;;;;;;;17.38;99.21;99432.31;4996026;28;20050;-72
2021/07/26 00:15:54;;;;;;;4.53;2.30;;;;;;;17.38;98.47;99435.03;4994998;28;20518;-71
2021/07/26 00:18:22;;;;;;;6.57;2.80;;;;;;;17.39;97.52;99428.63;4996238;28;20339;-72
2021/07/26 00:20:49;;;;;;;3.95;2.50;;;;;;;17.35;98.55;99428.09;4996129;28;20119;-71
2021/07/26 00:23:16;;;;;;;5.80;2.22;;;;;;;17.27;98.33;99422.59;4995819;28;20403;-72
2021/07/26 00:25:43;;;;;;;5.85;2.65;;;;;;;17.32;98.10;99420.28;4995856;28;20140;-71
2021/07/26 00:28:10;;;;;;;3.10;2.30;;;;;;;17.33;97.66;99424.69;4995685;28;20474;-73
2021/07/26 00:30:37;;;;;;;3.78;2.58;;;;;;;17.35;97.00;99421.81;4996239;28;20085;-73
2021/07/26 00:34:28;;;;;;;3.67;2.03;;;;;;;17.40;97.02;99429.44;4995913;28;20132;-71
2021/07/26 00:36:29;;;;;;;5.50;2.63;;;;;;;17.38;96.62;99422.38;4988712;28;20054;-72
2021/07/26 00:38:56;;;;;;;3.00;2.17;;;;;;;17.36;97.89;99421.69;4995905;28;20105;-71
2021/07/26 00:41:22;;;;;;;4.15;2.13;;;;;;;17.34;98.70;99414.75;4994885;28;20104;-72
2021/07/26 00:43:49;;;;;;;3.65;2.30;;;;;;;17.32;96.34;99414.06;4993955;28;20093;-73
2021/07/26 00:46:16;;;;;;;4.07;2.53;;;;;;;17.37;96.99;99414.41;4995461;28;20062;-72
2021/07/26 00:48:44;;;;;;;4.20;2.70;;;;;;;17.39;97.20;99409.75;5002175;28;20379;-73
2021/07/26 00:51:12;;;;;;;3.88;1.90;;;;;;;17.33;97.29;99413.88;5046890;28;20494;-72
2021/07/26 00:53:39;;;;;;;5.00;2.40;;;;;;;17.30;98.85;99413.34;5015275;28;20058;-71
2021/07/26 00:56:06;;;;;;;7.85;2.47;;;;;;;17.31;98.17;99415.03;5015254;28;20128;-71
2021/07/26 00:58:34;;;;;;;4.95;2.17;;;;;;;17.30;96.52;99410.66;5015438;28;20411;-72
2021/07/26 01:01:01;;;;;;;4.13;2.42;;;;;;;17.23;97.33;99400.50;5013992;28;20046;-72
2021/07/26 01:03:28;;;;;;;3.63;2.78;;;;;;;17.29;99.22;99406.28;5015016;28;20053;-71
2021/07/26 01:05:55;;;;;;;5.57;2.28;;;;;;;17.35;96.50;99401.13;5014737;28;20058;-73
2021/07/26 01:08:22;;;;;;;5.00;2.58;;;;;;;17.32;96.82;99405.97;5019009;28;20470;-72
2021/07/26 01:10:48;;;;;;;4.70;2.13;;;;;;;17.30;96.43;99411.50;5019293;28;20096;-72
2021/07/26 01:13:15;;;;;;;7.13;2.60;;;;;;;17.43;96.14;99408.41;5017932;28;20149;-71
2021/07/26 01:15:42;;;;;;;5.88;2.20;;;;;;;17.38;96.04;99411.56;5018923;28;20133;-71
2021/07/26 01:18:24;;;;;;;3.20;2.35;;;;;;;17.47;95.71;99408.94;5001715;28;20124;-72
2021/07/26 01:21:03;;;;;;;8.57;2.60;;;;;;;17.41;97.10;99405.03;5012468;28;20050;-72
2021/07/26 01:23:33;;;;;;;7.78;2.58;;;;;;;17.37;97.29;99400.94;4999257;28;20046;-71
2021/07/26 01:26:00;;;;;;;8.57;2.58;;;;;;;17.37;97.15;99400.94;4999082;28;20054;-72
2021/07/26 01:28:33;;;;;;;7.03;2.38;;;;;;;17.37;96.82;99404.50;4998953;28;20385;-72
2021/07/26 01:31:00;;;;;;;4.93;2.13;;;;;;;17.32;98.44;99408.66;4999219;28;20054;-71
2021/07/26 01:33:26;;;;;;;6.15;3.10;;;;;;;17.30;98.46;99406.13;4998806;28;20057;-72
2021/07/26 01:35:53;;;;;;;4.00;2.30;;;;;;;17.24;99.88;99407.59;4999289;28;20046;-72
2021/07/26 01:38:21;;;;;;;3.50;2.35;;;;;;;17.27;97.79;99408.28;5014021;28;20050;-72
2021/07/26 01:40:53;;;;;;;7.03;2.58;;;;;;;17.06;97.95;99379.81;4998937;28;20054;-72
2021/07/26 01:43:24;;;;;;;9.20;2.67;;;;;;;17.17;97.93;99401.09;4998807;28;20053;-72
2021/07/26 01:46:23;;;;;;;3.40;2.25;;;;;;;17.23;96.80;99400.50;4998918;28;20396;-72
2021/07/26 01:49:00;;;;;;;3.13;2.20;;;;;;;17.19;97.65;99406.34;5006084;28;20049;-72
2021/07/26 01:51:42;;;;;;;6.00;2.33;;;;;;;17.09;100.00;99395.66;5018219;28;20046;-71
2021/07/26 01:54:09;;;;;;;5.82;2.88;;;;;;;17.02;100.00;99399.97;5018511;28;20046;-71
2021/07/26 01:56:36;;;;;;;4.20;2.15;;;;;;;17.08;98.81;99402.06;5017109;28;20054;-72
2021/07/26 01:59:03;;;;;;;4.53;2.40;;;;;;;17.08;97.67;99402.06;5018211;28;20054;-71
2021/07/26 02:01:30;;;;;;;4.60;2.65;;;;;;;17.03;98.59;99402.53;5035396;28;20108;-72
2021/07/26 02:03:57;;;;;;;6.88;2.70;;;;;;;17.00;99.94;99396.56;5002568;28;20056;-71
2021/07/26 02:06:24;;;;;;;4.78;2.42;;;;;;;17.07;98.43;99403.06;5010525;28;20054;-72
2021/07/26 02:08:51;;;;;;;5.20;2.63;;;;;;;16.99;100.00;99411.03;5018065;28;20050;-71
2021/07/26 02:11:22;;;;;;;4.55;2.35;;;;;;;17.01;100.00;99414.41;5003608;28;20045;-72
2021/07/26 02:13:52;;;;;;;6.65;3.17;;;;;;;16.91;99.95;99406.41;5017893;28;20068;-72
2021/07/26 02:16:21;;;;;;;10.57;2.60;;;;;;;16.93;99.04;99413.34;5017551;28;20049;-71
2021/07/26 02:18:48;;;;;;;4.97;2.88;;;;;;;16.95;99.32;99416.72;5010079;28;20622;-71
2021/07/26 02:21:15;;;;;;;8.32;2.75;;;;;;;16.95;99.44;99418.59;5039684;28;20259;-71
2021/07/26 02:23:44;;;;;;;8.00;2.97;;;;;;;16.95;100.00;99411.34;4998296;28;20046;-71
2021/07/26 02:26:11;;;;;;;5.35;2.47;;;;;;;16.99;100.00;99413.75;4998128;28;20359;-72
2021/07/26 02:28:38;;;;;;;5.60;2.83;;;;;;;16.83;100.00;99401.78;4998255;28;20058;-71
2021/07/26 02:31:04;;;;;;;10.05;3.83;;;;;;;16.84;100.00;99423.19;4998171;28;20050;-72
2021/07/26 02:33:31;;;;;;;7.50;2.83;;;;;;;16.81;100.00;99420.81;4997868;28;20050;-71
2021/07/26 02:35:57;;;;;;;4.30;2.40;;;;;;;16.76;100.00;99427.66;5001724;28;20058;-72
2021/07/26 02:38:24;;;;;;;5.30;2.90;;;;;;;16.77;100.00;99424.81;5017603;28;20050;-72
2021/07/26 02:40:51;;;;;;;6.03;3.22;;;;;;;16.69;100.00;99417.47;5017305;28;20050;-70
2021/07/26 02:43:17;;;;;;;3.97;2.90;;;;;;;16.73;100.00;99427.97;5048941;28;20080;-70
2021/07/26 02:45:44;;;;;;;9.82;2.92;;;;;;;16.75;99.67;99426.81;5017315;28;20049;-72
2021/07/26 02:48:11;;;;;;;8.30;4.18;;;;;;;16.66;100.00;99423.19;5017361;28;20108;-71
2021/07/26 02:50:37;;;;;;;6.07;3.22;;;;;;;16.68;100.00;99428.41;5049183;28;20100;-71
2021/07/26 02:53:04;;;;;;;7.88;3.03;;;;;;;16.65;100.00;99432.25;5017038;28;20428;-72
2021/07/26 02:55:31;;;;;;;4.32;2.85;;;;;;;16.62;100.00;99437.09;5016022;28;20096;-70
2021/07/26 02:57:57;;;;;;;6.95;3.15;;;;;;;16.66;99.74;99433.09;5015884;28;20054;-70
2021/07/26 03:00:24;;;;;;;7.40;2.97;;;;;;;16.63;100.00;99428.03;5017040;28;20184;-71
2021/07/26 03:02:51;;;;;;;7.45;3.22;;;;;;;16.59;99.71;99424.78;5021069;28;20129;-72
2021/07/26 03:05:18;;;;;;;6.68;3.20;;;;;;;16.70;98.74;99427.28;5002240;28;20163;-72
2021/07/26 03:07:44;;;;;;;6.90;2.92;;;;;;;16.46;99.80;99394.66;5017135;28;20054;-70
2021/07/26 03:10:11;;;;;;;7.03;2.63;;;;;;;16.59;98.89;99416.69;5015561;28;20046;-71
2021/07/26 03:12:38;;;;;;;5.03;2.83;;;;;;;16.62;99.33;99437.09;5016888;28;20344;-70
2021/07/26 03:15:05;;;;;;;7.38;3.22;;;;;;;16.63;99.49;99441.50;4999304;28;20056;-71
2021/07/26 03:17:31;;;;;;;7.68;3.35;;;;;;;16.60;98.67;99448.03;4997237;28;20050;-70
2021/07/26 03:19:58;;;;;;;6.50;3.20;;;;;;;16.62;99.02;99448.72;4996863;28;20440;-71
2021/07/26 03:23:08;;;;;;;5.78;2.75;;;;;;;16.62;99.39;99450.56;4997083;28;20046;-71
2021/07/26 03:25:40;;;;;;;8.13;2.88;;;;;;;16.63;99.62;99454.97;5014117;28;20166;-71
2021/07/26 03:28:07;;;;;;;10.25;3.15;;;;;;;16.59;98.58;99449.03;4995458;28;20120;-70
2021/07/26 03:30:34;;;;;;;4.85;2.78;;;;;;;16.49;98.45;99422.16;4996372;28;20050;-70
2021/07/26 03:33:01;;;;;;;4.05;3.00;;;;;;;16.64;98.74;99451.25;4996854;28;20050;-71
2021/07/26 03:35:28;;;;;;;7.90;3.10;;;;;;;16.63;99.27;99465.75;4996893;28;20104;-72
2021/07/26 03:37:54;;;;;;;6.65;3.28;;;;;;;16.59;99.04;99470.56;4996893;28;20050;-70
2021/07/26 03:40:21;;;;;;;7.05;3.28;;;;;;;16.62;98.50;99461.34;4996485;28;20444;-72
2021/07/26 03:42:48;;;;;;;5.07;2.72;;;;;;;16.61;98.49;99462.34;4995610;28;20117;-71
2021/07/26 03:45:17;;;;;;;4.38;3.00;;;;;;;16.57;98.68;99472.59;4996448;28;20392;-71
2021/07/26 03:47:44;;;;;;;4.30;3.03;;;;;;;16.55;99.05;99474.56;4996836;28;20122;-69
2021/07/26 03:50:13;;;;;;;5.18;3.00;;;;;;;16.49;99.35;99464.38;4996364;28;20054;-71
2021/07/26 03:52:48;;;;;;;5.78;2.47;;;;;;;16.34;100.00;99450.56;4996884;28;20058;-72
2021/07/26 03:55:25;;;;;;;4.00;3.25;;;;;;;16.50;100.00;99475.00;4996601;28;20051;-71
2021/07/26 03:57:53;;;;;;;5.00;2.90;;;;;;;16.49;99.87;99470.63;4996417;28;20058;-70
2021/07/26 04:00:22;;;;;;;6.50;3.22;;;;;;;16.48;99.15;99478.84;4996850;28;20105;-72
2021/07/26 04:05:41;;;;;;;4.82;2.70;;;;;;;16.37;99.63;99479.88;4996383;28;20049;-72
2021/07/26 04:08:16;;;;;;;4.70;2.55;;;;;;;16.41;98.87;99482.13;4996284;28;20104;-69
2021/07/26 04:10:47;;;;;;;7.28;3.35;;;;;;;16.46;97.95;99483.53;4996191;28;20116;-71
2021/07/26 04:13:14;;;;;;;7.07;2.58;;;;;;;16.43;99.01;99488.25;4998425;28;20498;-70
2021/07/26 04:15:44;;;;;;;3.05;2.70;;;;;;;16.41;98.56;99484.00;5015951;28;20046;-70
2021/07/26 04:18:12;;;;;;;4.05;2.70;;;;;;;16.43;100.00;99495.47;5046767;28;20061;-70
2021/07/26 04:20:39;;;;;;;9.63;3.55;;;;;;;16.37;100.00;99487.97;5010911;28;20057;-70
2021/07/26 04:23:06;;;;;;;2.85;2.40;;;;;;;16.37;100.00;99490.66;4996037;28;20471;-72
2021/07/26 04:25:33;;;;;;;6.90;2.97;;;;;;;16.33;100.00;99490.13;4996084;28;20054;-72
2021/07/26 04:27:59;;;;;;;3.65;2.97;;;;;;;16.26;100.00;99484.47;5027638;28;20072;-72
2021/07/26 04:30:26;;;;;;;11.50;3.65;;;;;;;16.33;100.00;99489.28;4995791;28;20396;-71
2021/07/26 04:32:52;;;;;;;3.17;2.65;;;;;;;16.26;100.00;99480.94;4995934;28;20427;-70
2021/07/26 04:35:19;;;;;;;5.00;2.95;;;;;;;16.31;99.23;99500.19;4995786;28;20337;-72
2021/07/26 04:37:46;;;;;;;5.50;3.40;;;;;;;16.27;99.78;99488.88;4995714;28;20149;-70
2021/07/26 04:40:13;;;;;;;5.72;3.17;;;;;;;16.18;100.00;99489.72;4995672;28;20050;-69
2021/07/26 04:42:42;;;;;;;8.05;2.72;;;;;;;16.28;100.00;99505.84;4994966;28;20055;-72
2021/07/26 04:45:11;;;;;;;5.22;3.00;;;;;;;16.28;100.00;99504.03;4995674;28;20081;-72
2021/07/26 04:47:37;;;;;;;4.55;2.72;;;;;;;16.25;100.00;99498.09;4995754;28;20132;-72
2021/07/26 04:50:05;;;;;;;3.75;2.78;;;;;;;16.26;100.00;99510.53;4995626;28;20118;-71
2021/07/26 04:52:32;;;;;;;5.38;3.13;;;;;;;16.26;100.00;99507.84;4995837;28;20116;-71
2021/07/26 04:54:59;;;;;;;3.47;2.72;;;;;;;16.24;100.00;99510.69;4995775;28;20047;-69
2021/07/26 04:57:26;;;;;;;9.23;2.97;;;;;;;16.28;99.80;99516.63;4995899;28;20050;-71
2021/07/26 04:59:53;;;;;;;6.15;2.90;;;;;;;16.25;99.35;99511.53;4995821;28;20429;-70
2021/07/26 05:02:19;;;;;;;6.90;2.67;;;;;;;16.22;100.00;99503.75;4989932;28;20057;-71
2021/07/26 05:04:47;;;;;;;3.65;2.83;;;;;;;16.25;99.85;99515.06;5005258;28;20538;-71
2021/07/26 05:07:13;;;;;;;5.55;2.90;;;;;;;16.31;99.33;99516.34;4997972;28;20050;-70
2021/07/26 05:09:43;;;;;;;4.35;2.97;;;;;;;16.28;99.61;99519.31;5007255;28;20058;-71
2021/07/26 05:12:14;;;;;;;7.35;2.95;;;;;;;16.26;100.00;99513.25;5002530;28;20096;-71
2021/07/26 05:14:47;;;;;;;5.20;2.72;;;;;;;16.31;99.81;99521.72;5015001;28;20387;-70
2021/07/26 05:17:26;;;;;;;3.47;2.60;;;;;;;16.29;100.00;99521.03;5014729;28;20506;-71
2021/07/26 05:19:53;;;;;;;4.25;2.95;;;;;;;16.28;100.00;99511.25;4995719;28;20508;-70
2021/07/26 05:22:20;;;;;;;5.10;3.08;;;;;;;16.31;100.00;99524.44;4996716;28;20054;-71
2021/07/26 05:24:48;;;;;;;3.90;2.90;;;;;;;16.30;99.31;99506.56;4995626;28;20076;-69
2021/07/26 05:27:15;;;;;;;4.45;2.50;;;;;;;16.38;100.00;99524.66;4995357;28;20050;-71
2021/07/26 05:29:42;;;;;;;5.05;2.80;;;;;;;16.36;100.00;99523.97;4995577;28;20058;-71
2021/07/26 05:32:09;;;;;;;4.65;2.90;;;;;;;16.41;100.00;99527.91;4994340;28;20054;-71
2021/07/26 05:34:36;;;;;;;4.00;3.00;;;;;;;16.50;99.88;99520.81;5006305;28;20058;-69
2021/07/26 05:37:03;;;;;;;5.57;2.90;;;;;;;16.51;99.82;99521.66;4994913;28;20356;-71
2021/07/26 05:39:30;;;;;;;5.25;3.20;;;;;;;16.66;97.92;99530.09;4994979;28;20081;-71
2021/07/26 05:42:00;;;;;;;8.00;3.28;;;;;;;16.75;97.47;99540.00;4994990;28;20113;-69
2021/07/26 05:44:28;;;;;;;5.55;3.20;;;;;;;16.79;99.79;99535.16;4994921;28;20058;-70
2021/07/26 05:46:55;;;;;;;5.30;3.20;;;;;;;16.73;98.84;99539.28;4994454;28;20349;-69
2021/07/26 05:49:22;;;;;;;4.30;3.05;;;;;;;16.78;98.89;99536.97;4995189;28;20061;-69
2021/07/26 05:51:48;;;;;;;3.97;2.95;;;;;;;16.84;99.49;99543.63;5008825;28;20045;-69
2021/07/26 05:54:15;;;;;;;7.03;3.35;;;;;;;16.91;98.04;99550.13;5018381;28;20104;-70
2021/07/26 05:56:49;;;;;;;5.00;3.00;;;;;;;16.86;98.91;99547.03;5018139;28;20490;-69
2021/07/26 05:59:16;;;;;;;8.85;3.10;;;;;;;16.93;98.57;99536.47;5017469;28;20053;-74
2021/07/26 06:01:47;;;;;;;8.25;3.10;;;;;;;17.03;99.16;99526.53;5013958;28;20059;-75
2021/07/26 06:04:15;;;;;;;5.25;3.05;;;;;;;17.12;98.49;99521.22;4995213;28;20105;-76
2021/07/26 06:06:43;;;;;;;4.95;3.05;;;;;;;17.16;98.73;99518.06;4989278;28;20050;-74
2021/07/26 06:09:10;;;;;;;6.80;3.03;;;;;;;17.23;97.65;99513.75;4994913;28;20129;-75
2021/07/26 06:11:38;;;;;;;2.72;2.40;;;;;;;17.32;96.26;99514.69;4997785;28;20116;-76
2021/07/26 06:14:05;;;;;;;5.72;3.38;;;;;;;17.36;95.52;99516.09;4992780;28;20054;-75
2021/07/26 06:16:32;;;;;;;5.75;2.80;;;;;;;17.34;96.41;99501.06;4996361;28;20148;-75
2021/07/26 06:19:08;;;;;;;6.40;3.08;;;;;;;17.34;95.38;99496.50;4996712;28;20441;-76
2021/07/26 06:21:46;;;;;;;6.00;3.08;;;;;;;17.58;94.85;99510.34;4999665;28;20476;-75
2021/07/26 06:24:14;;;;;;;6.30;3.00;;;;;;;17.70;94.37;99509.13;5001499;28;20086;-77
2021/07/26 06:26:42;;;;;;;4.70;2.67;;;;;;;17.76;93.20;99508.50;4999773;28;20104;-79
2021/07/26 06:29:09;;;;;;;3.28;2.80;;;;;;;17.80;94.15;99505.50;5003585;28;20051;-78
2021/07/26 06:31:36;;;;;;;3.13;2.55;;;;;;;17.77;93.17;99506.66;4979326;28;20047;-78
2021/07/26 06:34:04;;;;;;;6.10;2.50;;;;;;;17.83;93.44;99506.03;4978494;28;20050;-75
2021/07/26 06:36:31;;;;;;;4.55;2.83;;;;;;;17.73;94.21;99497.16;4981600;28;20093;-72
2021/07/26 06:38:58;;;;;;;8.27;2.38;;;;;;;17.79;93.40;99512.72;4993801;28;20062;-71
2021/07/26 06:41:25;;;;;;;5.25;2.60;;;;;;;17.80;93.53;99502.78;4997145;28;20104;-73
2021/07/26 06:43:52;;;;;;;4.22;2.83;;;;;;;17.97;92.96;99517.25;4994112;28;20381;-72
2021/07/26 06:46:20;;;;;;;3.63;2.70;;;;;;;18.02;91.72;99517.59;4994993;28;20173;-75
2021/07/26 06:48:47;;;;;;;5.25;2.60;;;;;;;18.04;89.77;99513.75;4978717;28;20100;-73
2021/07/26 06:51:15;;;;;;;6.38;2.88;;;;;;;18.11;92.58;99529.34;4985305;28;20503;-73
2021/07/26 06:53:41;;;;;;;3.65;2.80;;;;;;;18.12;91.87;99525.63;4983518;28;20047;-73
2021/07/26 06:56:10;;;;;;;5.07;2.60;;;;;;;18.14;92.51;99526.34;4985247;28;20520;-75
2021/07/26 06:58:38;;;;;;;5.78;3.00;;;;;;;18.19;90.76;99526.69;4990141;28;20054;-76
2021/07/26 07:01:05;;;;;;;4.70;3.15;;;;;;;18.23;90.50;99529.94;4982252;28;20062;-75
2021/07/26 07:03:46;;;;;;;5.00;2.80;;;;;;;18.32;89.58;99529.81;5070805;27;1290841;-73
2021/07/26 07:06:15;;;;;;;4.85;2.92;;;;;;;18.40;89.12;99531.72;5109818;28;20433;-75
2021/07/26 07:08:42;;;;;;;5.80;2.95;;;;;;;18.44;89.42;99535.81;5075233;28;20377;-72
2021/07/26 07:11:11;;;;;;;4.38;3.20;;;;;;;18.49;88.40;99532.63;5107794;28;20063;-71
2021/07/26 07:13:40;;;;;;;4.47;2.70;;;;;;;18.48;88.02;99530.94;5106882;28;20054;-71
2021/07/26 07:16:11;;;;;;;3.88;2.50;;;;;;;18.52;87.60;99529.59;5093398;28;20086;-72
2021/07/26 07:18:39;;;;;;;6.82;3.08;;;;;;;18.56;89.16;99528.28;5100924;28;20543;-74
2021/07/26 07:21:06;;;;;;;3.10;2.80;;;;;;;18.66;87.01;99533.56;5089918;28;20318;-73
2021/07/26 07:23:33;;;;;;;4.55;3.10;;;;;;;18.62;87.15;99520.53;5100472;28;20417;-72
2021/07/26 07:26:00;;;;;;;3.25;2.65;;;;;;;18.66;87.21;99538.09;5098905;28;20064;-72
2021/07/26 07:28:28;;;;;;;9.80;2.90;;;;;;;18.72;85.61;99535.63;5080830;28;20449;-72
2021/07/26 07:30:54;;;;;;;3.53;2.55;;;;;;;18.71;86.82;99542.03;5101532;28;20048;-76
2021/07/26 07:33:21;;;;;;;5.10;2.70;;;;;;;18.69;85.86;99544.03;5100000;28;20047;-74
2021/07/26 07:35:48;;;;;;;6.85;3.13;;;;;;;18.77;86.48;99542.38;5095842;28;20090;-74
2021/07/26 07:38:18;;;;;;;3.33;2.30;;;;;;;18.85;85.70;99542.44;5098371;28;20048;-76
2021/07/26 07:40:45;;;;;;;3.70;2.40;;;;;;;18.84;85.15;99544.28;5081076;28;20083;-75
2021/07/26 07:43:11;;;;;;;6.32;2.72;;;;;;;18.84;85.61;99544.28;5097112;28;20498;-75
2021/07/26 07:45:38;;;;;;;7.20;2.75;;;;;;;18.91;83.15;99544.44;5086972;28;20425;-73
2021/07/26 07:48:05;;;;;;;2.85;2.40;;;;;;;18.99;84.54;99555.31;5072628;28;20113;-74
2021/07/26 07:50:31;;;;;;;4.63;3.08;;;;;;;19.05;83.99;99558.38;5073123;28;20041;-74
2021/07/26 07:52:58;;;;;;;3.08;2.60;;;;;;;19.08;82.94;99537.31;5090396;28;20093;-77
2021/07/26 07:55:26;;;;;;;5.97;2.95;;;;;;;19.27;82.28;99565.06;5090696;28;20102;-76
2021/07/26 07:57:52;;;;;;;2.58;2.15;;;;;;;19.33;83.85;99553.56;5090304;28;20040;-73
2021/07/26 08:00:20;;;;;;;5.88;2.83;;;;;;;19.41;80.75;99548.16;5091046;28;20087;-74
2021/07/26 08:02:47;;;;;;;5.32;2.60;;;;;;;19.51;81.57;99547.19;5090814;28;20743;-74
2021/07/26 08:05:16;;;;;;;6.35;2.60;;;;;;;19.67;79.81;99549.88;5087087;28;20048;-74
2021/07/26 08:07:44;;;;;;;3.85;2.08;;;;;;;19.62;77.04;99557.66;5090802;28;20066;-83
2021/07/26 08:10:12;;;;;;;3.13;2.40;;;;;;;19.52;76.99;99543.47;5073331;28;20135;-81
2021/07/26 08:12:39;;;;;;;6.00;2.20;;;;;;;19.65;77.51;99554.63;5090688;28;20040;-78
2021/07/26 08:15:07;;;;;;;3.15;2.00;;;;;;;19.57;77.16;99551.94;5077640;28;20059;-78
2021/07/26 08:17:38;;;;;;;5.18;2.45;;;;;;;19.62;77.22;99563.06;5059731;28;20052;-78
2021/07/26 08:20:07;;;;;;;5.45;2.20;;;;;;;19.63;76.70;99553.97;5076096;28;20083;-78
2021/07/26 08:22:34;;;;;;;2.85;2.15;;;;;;;19.85;76.08;99562.44;5053233;28;20052;-74
2021/07/26 08:25:00;;;;;;;4.85;2.28;;;;;;;19.77;73.76;99568.69;5059221;28;20057;-75
2021/07/26 08:27:27;;;;;;;2.50;1.70;;;;;;;19.70;74.99;99555.97;5076917;28;20050;-75
2021/07/26 08:29:55;;;;;;;2.63;2.00;;;;;;;19.81;74.35;99561.94;5074565;28;20083;-76
2021/07/26 08:32:21;;;;;;;2.17;1.88;;;;;;;19.72;76.43;99551.25;5077482;28;20054;-69
2021/07/26 08:34:48;;;;;;;4.75;1.98;;;;;;;19.80;77.84;99562.94;5043265;28;20051;-73
2021/07/26 08:37:27;;;;;;;6.28;2.10;;;;;;;19.84;75.26;99557.19;5076483;28;20040;-72
2021/07/26 08:39:54;;;;;;;2.45;1.85;;;;;;;19.76;78.29;99547.19;5053559;28;20044;-71
2021/07/26 08:42:20;;;;;;;3.78;1.60;;;;;;;20.12;75.70;99562.28;5038100;28;20045;-72
2021/07/26 08:44:48;;;;;;;2.63;1.85;;;;;;;20.22;76.75;99560.25;5056525;28;20055;-72
2021/07/26 08:47:17;;;;;;;3.53;1.70;;;;;;;20.51;72.50;99566.09;5038689;28;20041;-72
2021/07/26 08:49:45;;;;;;;5.30;2.13;;;;;;;20.48;71.89;99578.13;5045066;28;20050;-76
2021/07/26 08:52:18;;;;;;;1.80;1.30;;;;;;;20.45;71.64;99573.06;5056384;28;20053;-73
2021/07/26 08:54:48;;;;;;;3.67;1.73;;;;;;;20.38;74.36;99569.34;5056666;28;20049;-72
2021/07/26 08:57:15;;;;;;;2.88;1.88;;;;;;;20.47;72.89;99588.13;5055166;28;20053;-72
2021/07/26 08:59:43;;;;;;;3.63;1.75;;;;;;;20.48;71.88;99578.97;5022964;28;20107;-77
2021/07/26 09:02:10;;;;;;;3.17;1.90;;;;;;;20.40;72.61;99570.00;5059391;28;20080;-75
2021/07/26 09:04:37;;;;;;;3.22;1.92;;;;;;;20.49;73.42;99575.25;5053346;28;20095;-75
2021/07/26 09:07:08;;;;;;;5.32;1.95;;;;;;;20.59;70.81;99571.50;5057200;28;20048;-72
2021/07/26 09:09:46;;;;;;;4.63;1.80;;;;;;;20.55;70.14;99578.28;5056844;28;20072;-77
2021/07/26 09:12:42;;;;;;;1.83;1.63;;;;;;;20.31;72.41;99588.16;5057102;28;20414;-73
2021/07/26 09:15:29;;;;;;;3.17;1.95;;;;;;;20.20;71.51;99590.22;5051791;28;20094;-72
2021/07/26 09:18:05;;;;;;;1.85;1.50;;;;;;;20.24;69.89;99589.84;5042476;28;20045;-81
2021/07/26 09:20:34;;;;;;;2.60;1.92;;;;;;;20.25;71.64;99594.28;5060966;28;20087;-76
2021/07/26 09:23:14;;;;;;;3.72;1.90;;;;;;;20.27;70.52;99594.94;5055345;28;20045;-70
2021/07/26 09:25:45;;;;;;;2.80;1.80;;;;;;;20.27;72.05;99594.94;5054547;28;20060;-72
2021/07/26 09:28:13;;;;;;;2.75;1.92;;;;;;;20.32;72.58;99601.53;5055662;28;20099;-73
2021/07/26 09:30:46;;;;;;;3.53;2.03;;;;;;;20.37;73.38;99595.59;5055155;28;20079;-77
2021/07/26 09:33:21;;;;;;;4.90;2.00;;;;;;;20.63;71.93;99605.38;5054686;28;20041;-77
2021/07/26 09:36:07;;;;;;;4.93;2.13;;;;;;;20.47;71.99;99595.41;5054601;28;20434;-72
2021/07/26 09:38:43;;;;;;;7.55;2.30;;;;;;;20.42;72.75;99598.63;5049463;28;20083;-73
2021/07/26 09:41:10;;;;;;;5.88;1.80;;;;;;;20.41;74.28;99601.50;5053789;28;20124;-77
2021/07/26 09:43:38;;;;;;;3.70;1.90;;;;;;;20.58;71.55;99599.63;5054724;28;20056;-74
2021/07/26 09:46:04;;;;;;;2.55;1.77;;;;;;;20.68;72.08;99603.00;5037882;28;20044;-75
2021/07/26 09:48:32;;;;;;;3.53;2.17;;;;;;;20.71;72.26;99613.47;5054874;28;20052;-76
2021/07/26 09:51:18;;;;;;;2.55;1.70;;;;;;;20.87;69.76;99600.94;5054580;28;20156;-76
2021/07/26 09:53:49;;;;;;;2.90;2.22;;;;;;;20.99;70.89;99609.53;5053283;28;20406;-76
2021/07/26 09:56:16;;;;;;;2.28;1.65;;;;;;;20.99;67.72;99607.69;5054556;28;20049;-77
2021/07/26 09:58:43;;;;;;;4.38;1.88;;;;;;;21.27;69.60;99604.50;5056024;28;20107;-77
2021/07/26 10:01:12;;;;;;;4.18;2.00;;;;;;;21.58;69.45;99603.63;5055214;28;20087;-75
2021/07/26 10:03:43;;;;;;;4.28;1.88;;;;;;;21.79;66.77;99591.28;5036361;28;20084;-77
2021/07/26 10:06:10;;;;;;;2.70;1.92;;;;;;;21.91;67.48;99585.44;5037040;28;20135;-75
2021/07/26 10:08:39;;;;;;;4.80;1.75;;;;;;;21.72;66.53;99579.47;5053868;28;20505;-74
2021/07/26 10:11:08;;;;;;;5.75;2.22;;;;;;;21.65;69.64;99608.34;5054656;28;20045;-76
2021/07/26 10:13:38;;;;;;;3.35;2.08;;;;;;;21.54;68.11;99605.03;5055571;28;20047;-76
2021/07/26 10:16:06;;;;;;;7.95;2.00;;;;;;;21.60;69.82;99608.03;5054447;28;20051;-74
2021/07/26 10:18:33;;;;;;;3.28;1.98;;;;;;;21.90;66.84;99608.22;5021166;28;20204;-82
2021/07/26 10:21:04;;;;;;;2.67;1.92;;;;;;;22.04;69.79;99617.41;5027038;28;20056;-76
2021/07/26 10:23:35;;;;;;;2.88;2.22;;;;;;;22.14;65.94;99614.44;5055865;28;20377;-76
2021/07/26 10:26:14;;;;;;;2.92;2.20;;;;;;;21.96;66.94;99600.16;5054946;28;20056;-77
2021/07/26 10:28:51;;;;;;;3.88;2.20;;;;;;;21.64;67.20;99617.50;5036028;28;20083;-76
2021/07/26 10:31:39;;;;;;;3.75;2.20;;;;;;;21.61;67.19;99624.16;5047489;28;20070;-75
2021/07/26 10:34:19;;;;;;;5.15;2.33;;;;;;;21.81;66.79;99612.84;5052192;28;20041;-76
2021/07/26 10:36:52;;;;;;;7.53;3.08;;;;;;;22.04;66.16;99623.72;5064596;28;20055;-69
2021/07/26 10:39:20;;;;;;;2.75;1.85;;;;;;;22.36;67.94;99616.31;5042512;28;20052;-77
2021/07/26 10:41:46;;;;;;;2.40;2.20;;;;;;;22.50;66.52;99621.97;5058621;28;20102;-75
2021/07/26 10:44:16;;;;;;;4.70;2.10;;;;;;;22.48;63.62;99613.13;5064233;28;20045;-70
2021/07/26 10:47:06;;;;;;;3.70;1.90;;;;;;;22.71;63.47;99621.25;5054249;28;20500;-71
2021/07/26 10:49:50;;;;;;;4.97;2.10;;;;;;;22.81;65.47;99618.25;5053688;28;20286;-74
2021/07/26 10:52:22;;;;;;;3.90;2.55;;;;;;;22.92;64.92;99620.50;5036317;28;20053;-74
2021/07/26 10:54:51;;;;;;;5.90;2.70;;;;;;;23.01;65.86;99623.13;5054592;28;20053;-69
2021/07/26 10:57:39;;;;;;;3.78;2.47;;;;;;;23.19;60.85;99631.75;5054582;28;20092;-73
2021/07/26 11:00:12;;;;;;;2.60;2.40;;;;;;;23.34;62.05;99628.19;5054280;28;20090;-72
2021/07/26 11:02:41;;;;;;;3.95;2.25;;;;;;;23.26;62.16;99622.81;5054403;28;20346;-73
2021/07/26 11:05:27;;;;;;;3.63;2.30;;;;;;;22.92;61.87;99620.50;5037606;28;20057;-74
2021/07/26 11:08:12;;;;;;;4.72;3.08;;;;;;;23.08;63.56;99629.50;5037180;28;20072;-74
2021/07/26 11:10:51;;;;;;;5.57;2.53;;;;;;;22.68;63.35;99623.50;5054648;28;20442;-73
2021/07/26 11:13:17;;;;;;;2.97;2.20;;;;;;;22.72;61.88;99624.81;5038515;28;20064;-74
2021/07/26 11:15:51;;;;;;;2.75;2.40;;;;;;;22.74;63.26;99622.75;5054756;28;20061;-74
2021/07/26 11:18:32;;;;;;;3.10;2.40;;;;;;;22.63;64.63;99616.75;5055016;28;20103;-74
2021/07/26 11:20:58;;;;;;;5.43;2.58;;;;;;;22.76;65.98;99616.09;5054899;28;20049;-73
2021/07/26 11:23:40;;;;;;;3.75;2.33;;;;;;;22.61;64.71;99612.53;5054630;28;20041;-72
2021/07/26 11:26:33;;;;;;;3.13;2.60;;;;;;;22.68;64.65;99613.47;5037370;28;20426;-73
2021/07/26 11:29:04;;;;;;;3.38;2.67;;;;;;;22.73;66.28;99615.63;5052013;28;20505;-72
2021/07/26 11:31:34;;;;;;;4.85;2.47;;;;;;;23.05;62.55;99614.38;5054997;28;20057;-73
2021/07/26 11:34:06;;;;;;;3.22;2.05;;;;;;;23.09;60.43;99606.69;5054649;28;20053;-73
2021/07/26 11:36:33;;;;;;;3.08;2.20;;;;;;;23.37;60.11;99599.72;5054884;28;20382;-73
2021/07/26 11:39:05;;;;;;;5.88;2.95;;;;;;;23.35;60.61;99599.09;5054416;28;20128;-74
2021/07/26 11:41:33;;;;;;;3.53;2.58;;;;;;;23.34;62.29;99595.50;5054479;28;20427;-73
2021/07/26 11:44:00;;;;;;;4.63;2.47;;;;;;;23.36;60.92;99603.50;5054559;28;20056;-73
2021/07/26 11:46:28;;;;;;;4.35;2.60;;;;;;;23.36;60.35;99604.31;5054413;28;20053;-73